createdAt,value
2022-11-20T05:15:20.970Z,7.27
2022-11-20T05:17:49.064Z,7.01
2022-11-20T05:20:15.707Z,7.20
2022-11-20T05:22:42.212Z,7.25
2022-11-20T05:25:08.837Z,7.12
2022-11-20T05:27:35.323Z,7.07
2022-11-20T05:30:01.798Z,7.23
2022-11-20T05:32:28.225Z,6.99
2022-11-20T05:34:54.681Z,7.22
2022-11-20T05:37:21.120Z,7.25
2022-11-20T05:39:47.702Z,7.43
2022-11-20T05:42:32.503Z,7.36
2022-11-20T05:45:04.958Z,7.20
2022-11-20T05:47:35.352Z,7.31
2022-11-20T05:50:02.205Z,7.25
2022-11-20T05:52:31.793Z,7.17
2022-11-20T05:54:58.454Z,7.30
2022-11-20T05:57:24.946Z,7.08
2022-11-20T05:59:51.405Z,7.26
2022-11-20T06:02:18.101Z,7.37
2022-11-20T06:04:44.581Z,7.43
2022-11-20T06:07:11.403Z,7.22
2022-11-20T06:09:37.914Z,7.39
2022-11-20T06:12:04.669Z,7.50
2022-11-20T06:14:31.142Z,7.42
2022-11-20T06:16:57.671Z,7.53
2022-11-20T06:19:24.337Z,7.60
2022-11-20T06:21:51.098Z,7.39
2022-11-20T06:24:18.351Z,7.60
2022-11-20T06:26:45.349Z,7.71
2022-11-20T06:29:11.825Z,7.65
2022-11-20T06:31:38.814Z,7.65
2022-11-20T06:34:07.090Z,7.83
2022-11-20T06:36:34.220Z,7.81
2022-11-20T06:39:01.446Z,7.97
2022-11-20T06:41:28.981Z,8.01
2022-11-20T06:43:55.772Z,7.97
2022-11-20T06:46:22.570Z,8.09
2022-11-20T06:48:50.367Z,7.86
2022-11-20T06:51:17.009Z,7.65
2022-11-20T06:53:43.512Z,7.90
2022-11-20T06:56:10.151Z,7.94
2022-11-20T06:58:36.911Z,7.73
2022-11-20T07:01:12.116Z,8.08
2022-11-20T07:03:39.224Z,8.10
2022-11-20T07:06:06.333Z,7.91
2022-11-20T07:08:33.582Z,7.84
2022-11-20T07:11:01.808Z,8.04
2022-11-20T07:13:29.374Z,8.06
2022-11-20T07:15:56.333Z,7.58
2022-11-20T07:18:22.779Z,7.73
2022-11-20T07:20:49.302Z,7.68
2022-11-20T07:23:15.962Z,7.78
2022-11-20T07:25:42.397Z,6.83
2022-11-20T07:28:09.183Z,7.00
2022-11-20T07:30:35.583Z,6.91
2022-11-20T07:33:02.034Z,7.00
2022-11-20T07:35:28.764Z,7.36
2022-11-20T07:37:55.207Z,7.66
2022-11-20T07:40:21.761Z,7.76
2022-11-20T07:42:53.411Z,7.80
2022-11-20T07:45:21.547Z,7.97
2022-11-20T07:47:48.234Z,8.11
2022-11-20T07:50:15.354Z,8.00
2022-11-20T07:52:41.933Z,7.99
2022-11-20T07:55:09.748Z,8.07
2022-11-20T07:57:36.390Z,8.08
2022-11-20T08:00:04.419Z,8.18
2022-11-20T08:02:40.233Z,8.08
2022-11-20T08:05:07.987Z,8.19
2022-11-20T08:07:43.047Z,8.11
2022-11-20T08:10:11.694Z,7.88
2022-11-20T08:13:04.025Z,7.93
2022-11-20T08:15:30.988Z,7.96
2022-11-20T08:21:02.232Z,7.17
2022-11-20T08:23:28.913Z,7.82
2022-11-20T08:25:56.461Z,7.46
2022-11-20T08:28:23.109Z,6.84
2022-11-20T08:30:51.294Z,6.94
2022-11-20T08:33:20.417Z,7.43
2022-11-20T08:35:48.040Z,6.77
2022-11-20T08:38:14.657Z,5.97
2022-11-20T08:41:03.301Z,6.36
2022-11-20T08:43:30.851Z,7.23
2022-11-20T08:45:58.005Z,7.01
2022-11-20T08:48:25.872Z,6.42
2022-11-20T08:50:54.170Z,6.93
2022-11-20T08:53:20.693Z,7.12
2022-11-20T08:55:49.619Z,6.95
2022-11-20T08:58:20.004Z,6.75
2022-11-20T09:00:48.470Z,7.25
2022-11-20T09:03:15.127Z,7.22
2022-11-20T09:05:42.060Z,7.21
2022-11-20T09:08:09.656Z,7.35
2022-11-20T09:10:37.373Z,7.47
2022-11-20T09:13:04.397Z,7.01
2022-11-20T09:15:30.916Z,7.56
2022-11-20T09:18:00.155Z,8.17
2022-11-20T09:20:29.558Z,8.46
2022-11-20T09:22:58.313Z,7.44
2022-11-20T09:25:27.878Z,7.22
2022-11-20T09:27:58.497Z,6.68
2022-11-20T09:30:25.791Z,6.84
2022-11-20T09:32:52.587Z,7.08
2022-11-20T09:35:24.254Z,7.23
2022-11-20T09:37:52.250Z,7.63
2022-11-20T09:40:24.954Z,8.52
2022-11-20T09:43:08.660Z,8.67
2022-11-20T09:46:19.399Z,7.88
2022-11-20T09:49:30.731Z,8.33
2022-11-20T09:52:26.921Z,8.01
2022-11-20T09:54:54.059Z,7.56
2022-11-20T09:57:26.391Z,8.03
2022-11-20T10:00:02.999Z,7.86
2022-11-20T10:03:00.489Z,8.30
2022-11-20T10:05:31.085Z,7.69
2022-11-20T10:08:18.028Z,7.46
2022-11-20T10:10:54.030Z,7.99
2022-11-20T10:13:39.263Z,8.63
2022-11-20T10:16:41.143Z,8.65
2022-11-20T10:19:38.935Z,7.70
2022-11-20T10:22:31.581Z,8.34
2022-11-20T10:25:14.264Z,8.93
2022-11-20T10:28:14.930Z,8.54
2022-11-20T10:30:44.267Z,7.67
2022-11-20T10:33:18.478Z,8.37
2022-11-20T10:36:21.149Z,8.87
2022-11-20T10:38:54.384Z,8.43
2022-11-20T10:41:28.147Z,8.39
2022-11-20T10:44:39.169Z,8.50
2022-11-20T10:47:11.159Z,7.83
2022-11-20T10:49:37.590Z,7.83
2022-11-20T10:52:08.306Z,7.90
2022-11-20T10:54:48.827Z,8.25
2022-11-20T10:57:22.589Z,8.26
2022-11-20T11:00:01.910Z,7.55
2022-11-20T11:02:46.677Z,7.71
2022-11-20T11:05:23.170Z,8.11
2022-11-20T11:07:54.091Z,7.12
2022-11-20T11:10:42.287Z,7.78
2022-11-20T11:13:19.776Z,7.71
2022-11-20T11:15:46.233Z,8.61
2022-11-20T11:18:23.426Z,8.49
2022-11-20T11:20:54.800Z,7.64
2022-11-20T11:23:33.966Z,7.68
2022-11-20T11:26:02.888Z,7.10
2022-11-20T11:28:29.656Z,7.73
2022-11-20T11:30:56.764Z,8.43
2022-11-20T11:33:27.424Z,8.76
2022-11-20T11:36:00.806Z,8.29
2022-11-20T11:38:37.887Z,8.44
2022-11-20T11:41:05.937Z,8.74
2022-11-20T11:43:54.044Z,8.68
2022-11-20T11:46:34.655Z,9.06
2022-11-20T11:49:10.149Z,8.68
2022-11-20T11:52:01.797Z,8.46
2022-11-20T11:54:39.654Z,9.01
2022-11-20T11:57:45.027Z,9.49
2022-11-20T12:00:17.715Z,8.92
2022-11-20T12:02:47.295Z,8.63
2022-11-20T12:05:23.113Z,9.76
2022-11-20T12:07:55.303Z,11.09
2022-11-20T12:10:24.908Z,11.38
2022-11-20T12:13:01.835Z,10.69
2022-11-20T12:15:34.360Z,9.66
2022-11-20T12:18:01.588Z,10.64
2022-11-20T12:20:40.253Z,9.44
2022-11-20T12:23:28.624Z,8.91
2022-11-20T12:26:01.921Z,8.84
2022-11-20T12:28:38.458Z,8.48
2022-11-20T12:31:11.102Z,8.51
2022-11-20T12:34:13.978Z,7.98
2022-11-20T12:36:57.979Z,7.83
2022-11-20T12:39:43.049Z,8.41
2022-11-20T12:42:54.446Z,9.28
2022-11-20T12:45:47.122Z,8.43
2022-11-20T12:48:27.843Z,8.58
2022-11-20T12:51:16.612Z,8.36
2022-11-20T12:54:11.421Z,8.27
2022-11-20T12:56:40.870Z,8.33
2022-11-20T12:59:10.187Z,8.49
2022-11-20T13:01:51.260Z,8.21
2022-11-20T13:04:58.407Z,8.50
2022-11-20T13:07:29.033Z,8.45
2022-11-20T13:10:00.074Z,9.55
2022-11-20T13:12:32.719Z,8.73
2022-11-20T13:15:08.029Z,8.41
2022-11-20T13:17:47.875Z,9.07
2022-11-20T13:20:17.024Z,8.45
2022-11-20T13:22:46.718Z,9.16
2022-11-20T13:25:27.430Z,9.52
2022-11-20T13:27:55.179Z,9.76
2022-11-20T13:30:24.057Z,9.03
2022-11-20T13:33:02.031Z,9.21
2022-11-20T13:35:37.321Z,8.78
2022-11-20T13:38:12.637Z,8.27
2022-11-20T13:40:57.371Z,8.60
2022-11-20T13:43:39.696Z,9.56
2022-11-20T13:46:08.433Z,9.23
2022-11-20T13:48:42.537Z,8.97
2022-11-20T13:51:27.351Z,9.01
2022-11-20T13:54:06.151Z,9.46
2022-11-20T13:56:54.351Z,8.63
2022-11-20T13:59:42.821Z,8.02
2022-11-20T14:02:16.038Z,8.70
2022-11-20T14:04:47.522Z,8.82
2022-11-20T14:07:14.563Z,9.54
2022-11-20T14:09:56.338Z,9.84
2022-11-20T14:12:31.592Z,10.15
2022-11-20T14:14:58.974Z,10.01
2022-11-20T14:17:34.475Z,10.53
2022-11-20T14:20:05.814Z,10.65
2022-11-20T14:22:32.543Z,9.84
2022-11-20T14:25:02.245Z,9.89
2022-11-20T14:27:28.845Z,9.99
2022-11-20T14:29:55.823Z,9.86
2022-11-20T14:32:29.188Z,10.13
2022-11-20T14:35:09.474Z,10.39
2022-11-20T14:37:39.392Z,10.00
2022-11-20T14:40:24.755Z,10.02
2022-11-20T14:42:51.235Z,10.29
2022-11-20T14:45:18.696Z,10.47
2022-11-20T14:47:45.883Z,10.69
2022-11-20T14:50:27.013Z,10.77
2022-11-20T14:52:58.578Z,10.72
2022-11-20T14:55:36.191Z,10.73
2022-11-20T14:58:05.259Z,10.67
2022-11-20T15:00:36.178Z,10.69
2022-11-20T15:03:02.660Z,10.67
2022-11-20T15:05:50.171Z,9.87
2022-11-20T15:08:17.769Z,10.05
2022-11-20T15:10:50.232Z,10.22
2022-11-20T15:13:25.337Z,10.33
2022-11-20T15:15:55.823Z,9.96
2022-11-20T15:18:25.376Z,10.12
2022-11-20T15:20:52.708Z,10.23
2022-11-20T15:23:20.391Z,10.09
2022-11-20T15:25:48.133Z,10.30
2022-11-20T15:28:22.345Z,10.58
2022-11-20T15:30:50.294Z,10.66
2022-11-20T15:33:17.790Z,10.05
2022-11-20T15:35:45.039Z,10.27
2022-11-20T15:38:11.579Z,10.14
2022-11-20T15:40:38.102Z,9.99
2022-11-20T15:43:09.728Z,9.80
2022-11-20T15:45:59.545Z,10.10
2022-11-20T15:48:30.199Z,9.78
2022-11-20T15:51:04.749Z,9.72
2022-11-20T15:53:31.210Z,10.06
2022-11-20T15:55:57.786Z,10.32
2022-11-20T15:58:25.152Z,10.20
2022-11-20T16:00:51.944Z,10.37
2022-11-20T16:03:19.201Z,10.44
2022-11-20T16:05:46.621Z,10.65
2022-11-20T16:08:13.781Z,10.72
2022-11-20T16:10:40.784Z,10.79
2022-11-20T16:13:35.062Z,10.59
2022-11-20T16:16:10.056Z,9.99
2022-11-20T16:18:36.507Z,10.07
2022-11-20T16:21:03.424Z,9.65
2022-11-20T16:23:30.108Z,9.64
2022-11-20T16:25:56.589Z,9.74
2022-11-20T16:28:23.240Z,10.16
2022-11-20T16:30:49.681Z,10.42
2022-11-20T16:33:20.699Z,10.38
2022-11-20T16:35:47.114Z,10.23
2022-11-20T16:38:13.547Z,9.98
2022-11-20T16:40:42.054Z,10.00
2022-11-20T16:43:11.563Z,10.52
2022-11-20T16:45:43.049Z,10.61
2022-11-20T16:48:12.853Z,10.62
2022-11-20T16:51:08.786Z,10.52
2022-11-20T16:53:35.265Z,10.27
2022-11-20T16:56:23.696Z,10.33
2022-11-20T16:58:51.441Z,10.60
2022-11-20T17:01:48.148Z,10.68
2022-11-20T17:04:14.760Z,10.57
2022-11-20T17:06:44.351Z,10.73
2022-11-20T17:09:11.347Z,9.84
2022-11-20T17:11:38.291Z,9.79
2022-11-20T17:14:07.331Z,10.09
2022-11-20T17:16:36.091Z,10.38
2022-11-20T17:19:05.183Z,10.59
2022-11-20T17:21:33.204Z,10.42
2022-11-20T17:24:04.897Z,10.43
2022-11-20T17:26:31.920Z,10.66
2022-11-20T17:29:07.111Z,10.62
2022-11-20T17:31:34.759Z,10.75
2022-11-20T17:34:02.534Z,10.81
2022-11-20T17:36:30.120Z,10.56
2022-11-20T17:38:56.793Z,10.79
2022-11-20T17:41:25.467Z,10.78
2022-11-20T17:43:58.282Z,10.60
2022-11-20T17:46:27.063Z,10.38
2022-11-20T17:48:53.557Z,10.56
2022-11-20T17:51:25.970Z,10.54
2022-11-20T17:53:55.812Z,10.21
2022-11-20T17:56:41.122Z,10.31
2022-11-20T17:59:10.274Z,10.44
2022-11-20T18:01:37.529Z,10.25
2022-11-20T18:04:04.094Z,10.12
2022-11-20T18:06:32.206Z,10.21
2022-11-20T18:08:59.752Z,10.53
2022-11-20T18:11:28.692Z,10.59
2022-11-20T18:14:16.833Z,10.55
2022-11-20T18:16:49.102Z,10.80
2022-11-20T18:19:20.545Z,10.69
2022-11-20T18:21:47.076Z,10.71
2022-11-20T18:24:13.934Z,10.71
2022-11-20T18:26:44.346Z,10.83
2022-11-20T18:29:18.291Z,10.90
2022-11-20T18:31:44.806Z,10.76
2022-11-20T18:34:13.987Z,10.66
2022-11-20T18:36:42.276Z,10.47
2022-11-20T18:39:10.953Z,10.63
2022-11-20T18:41:56.821Z,10.65
2022-11-20T18:44:44.972Z,10.59
2022-11-20T18:47:15.764Z,10.67
2022-11-20T18:49:55.038Z,10.61
2022-11-20T18:52:27.395Z,9.99
2022-11-20T18:54:54.661Z,9.91
2022-11-20T18:57:24.159Z,9.78
2022-11-20T18:59:50.989Z,10.06
2022-11-20T19:02:19.930Z,9.78
2022-11-20T19:04:46.815Z,9.10
2022-11-20T19:07:14.639Z,9.73
2022-11-20T19:09:42.515Z,9.85
2022-11-20T19:12:11.380Z,9.79
2022-11-20T19:14:37.881Z,10.13
2022-11-20T19:17:06.810Z,9.83
2022-11-20T19:19:36.517Z,10.02
2022-11-20T19:22:08.174Z,9.47
2022-11-20T19:24:35.013Z,9.63
2022-11-20T19:27:13.885Z,9.02
2022-11-20T19:29:40.431Z,8.58
2022-11-20T19:32:07.287Z,8.86
2022-11-20T19:34:33.781Z,8.39
2022-11-20T19:37:01.084Z,9.11
2022-11-20T19:39:27.753Z,8.30
2022-11-20T19:41:54.346Z,7.33
2022-11-20T19:44:22.875Z,8.01
2022-11-20T19:46:50.826Z,8.91
2022-11-20T19:49:17.750Z,7.44
2022-11-20T19:51:49.093Z,7.57
2022-11-20T19:54:16.815Z,7.58
2022-11-20T19:56:43.614Z,8.20
2022-11-20T19:59:10.441Z,8.57
2022-11-20T20:01:37.165Z,8.73
2022-11-20T20:04:05.463Z,7.89
2022-11-20T20:06:34.221Z,8.17
2022-11-20T20:09:02.223Z,8.16
2022-11-20T20:11:41.280Z,8.50
2022-11-20T20:14:13.628Z,9.12
2022-11-20T20:16:40.991Z,8.85
2022-11-20T20:19:07.480Z,8.86
2022-11-20T20:21:36.324Z,8.23
2022-11-20T20:24:03.480Z,8.63
2022-11-20T20:26:31.544Z,7.86
2022-11-20T20:28:58.525Z,8.39
2022-11-20T20:31:27.192Z,8.41
2022-11-20T20:33:54.513Z,8.53
2022-11-20T20:36:22.544Z,8.62
2022-11-20T20:38:56.397Z,8.67
2022-11-20T20:41:31.488Z,8.81
2022-11-20T20:44:16.666Z,9.10
2022-11-20T20:46:43.815Z,9.55
2022-11-20T20:49:12.539Z,8.99
2022-11-20T20:51:39.091Z,9.02
2022-11-20T20:54:05.749Z,9.39
2022-11-20T20:56:32.465Z,9.11
2022-11-20T20:58:58.945Z,9.02
2022-11-20T21:01:28.926Z,8.89
2022-11-20T21:03:56.757Z,9.37
2022-11-20T21:06:23.862Z,9.98
2022-11-20T21:08:50.733Z,9.14
2022-11-20T21:11:20.005Z,9.01
2022-11-20T21:13:48.304Z,8.79
2022-11-20T21:16:16.284Z,8.58
2022-11-20T21:18:42.743Z,8.73
2022-11-20T21:21:38.852Z,9.32
2022-11-20T21:24:36.156Z,8.60
2022-11-20T21:27:05.209Z,9.25
2022-11-20T21:29:31.711Z,9.64
2022-11-20T21:31:58.650Z,9.79
2022-11-20T21:34:25.749Z,8.42
2022-11-20T21:36:52.588Z,9.13
2022-11-20T21:39:21.669Z,8.95
2022-11-20T21:42:07.108Z,9.46
2022-11-20T21:44:33.627Z,8.81
2022-11-20T21:47:00.290Z,9.07
2022-11-20T21:49:26.822Z,8.80
2022-11-20T21:51:53.712Z,8.94
2022-11-20T21:54:20.215Z,9.43
2022-11-20T21:56:46.709Z,9.86
2022-11-20T21:59:13.928Z,9.54
2022-11-20T22:01:40.548Z,9.98
2022-11-20T22:04:08.105Z,10.44
2022-11-20T22:06:34.871Z,10.09
2022-11-20T22:09:02.805Z,9.90
2022-11-20T22:11:30.035Z,9.30
2022-11-20T22:14:15.152Z,9.13
2022-11-20T22:16:41.658Z,9.19
2022-11-20T22:19:08.266Z,9.01
2022-11-20T22:21:35.173Z,8.69
2022-11-20T22:24:01.856Z,8.57
2022-11-20T22:26:40.012Z,8.39
2022-11-20T22:29:07.246Z,7.77
2022-11-20T22:31:33.725Z,8.66
2022-11-20T22:34:02.139Z,9.08
2022-11-20T22:36:30.370Z,9.65
2022-11-20T22:38:57.287Z,9.33
2022-11-20T22:41:29.800Z,8.48
2022-11-20T22:43:58.850Z,9.10
2022-11-20T22:46:27.233Z,8.43
2022-11-20T22:48:56.182Z,8.88
2022-11-20T22:51:25.575Z,9.13
2022-11-20T22:53:52.599Z,8.03
2022-11-20T22:56:20.072Z,7.86
2022-11-20T22:58:48.463Z,8.29
